Time;durP1;ratioP1;P1;durP2;ratioP2;P2;SDS_P1;SDS_P2;PMS_P1;PMS_P2;Temp;Humidity;BMP_temperature;BMP_pressure;BME280_temperature;BME280_humidity;BME280_pressure;Samples;Min_cycle;Max_cycle;Signal;HPM_P1;HPM_P2
2020/12/08 00:01:50;;;;;;;4.63;2.50;;;5.50;99.90;;;;;;5072049;28;20401;-48
2020/12/08 00:04:16;;;;;;;2.80;1.83;;;5.40;99.90;;;;;;5062992;28;20075;-49
2020/12/08 00:06:42;;;;;;;5.10;2.65;;;5.50;99.90;;;;;;5077824;28;20448;-51
2020/12/08 00:09:07;;;;;;;3.03;2.03;;;5.40;99.90;;;;;;5070907;28;20032;-47
2020/12/08 00:11:34;;;;;;;2.58;2.15;;;5.40;99.90;;;;;;5081909;28;20020;-51
2020/12/08 00:14:00;;;;;;;3.38;2.17;;;5.50;99.90;;;;;;5083080;28;20103;-49
2020/12/08 00:16:26;;;;;;;3.00;1.88;;;5.50;99.90;;;;;;5083927;28;20130;-48
2020/12/08 00:18:52;;;;;;;2.78;1.20;;;5.50;99.90;;;;;;5078551;28;20033;-49
2020/12/08 00:21:18;;;;;;;1.38;1.02;;;5.60;99.90;;;;;;5083666;28;20058;-48
2020/12/08 00:23:45;;;;;;;2.20;1.45;;;5.70;99.90;;;;;;5083710;28;20516;-51
2020/12/08 00:26:13;;;;;;;2.05;1.50;;;5.80;99.90;;;;;;5082617;28;20452;-50
2020/12/08 00:28:39;;;;;;;1.70;1.20;;;5.70;99.90;;;;;;5084092;28;20107;-48
2020/12/08 00:31:05;;;;;;;2.22;1.58;;;5.90;99.90;;;;;;5084327;28;20023;-48
2020/12/08 00:33:30;;;;;;;2.40;1.73;;;5.80;99.90;;;;;;5084459;28;20490;-48
2020/12/08 00:35:58;;;;;;;3.88;1.42;;;5.80;99.90;;;;;;5082237;28;20027;-49
2020/12/08 00:38:26;;;;;;;2.08;1.50;;;5.80;99.90;;;;;;5082875;28;20024;-50
2020/12/08 00:40:52;;;;;;;1.95;1.50;;;6.00;99.90;;;;;;5083152;28;20471;-52
2020/12/08 00:43:17;;;;;;;1.95;1.33;;;6.00;99.90;;;;;;5084085;28;20063;-48
2020/12/08 00:45:46;;;;;;;1.85;1.25;;;6.00;99.90;;;;;;5074219;28;20040;-51
2020/12/08 00:48:12;;;;;;;2.00;1.50;;;6.00;99.90;;;;;;5063909;28;20187;-51
2020/12/08 00:50:37;;;;;;;2.50;1.55;;;6.00;99.90;;;;;;5063701;28;20123;-48
2020/12/08 00:53:03;;;;;;;3.45;1.70;;;6.10;99.90;;;;;;5070176;28;20404;-51
2020/12/08 00:55:29;;;;;;;2.97;2.00;;;5.80;99.90;;;;;;5077074;28;20111;-50
2020/12/08 00:57:55;;;;;;;3.10;2.22;;;5.50;99.90;;;;;;5063936;28;20029;-52
2020/12/08 01:00:20;;;;;;;3.83;2.00;;;5.60;99.90;;;;;;5062997;28;20031;-51
2020/12/08 01:02:47;;;;;;;2.70;1.75;;;5.70;99.90;;;;;;5074907;28;20032;-52
2020/12/08 01:05:13;;;;;;;3.55;2.20;;;5.70;99.90;;;;;;5078489;28;20048;-54
2020/12/08 01:07:40;;;;;;;2.92;2.10;;;5.50;99.90;;;;;;5063523;28;20265;-50
2020/12/08 01:10:05;;;;;;;3.47;2.30;;;5.50;99.90;;;;;;5063246;28;20094;-53
2020/12/08 01:12:31;;;;;;;2.50;1.98;;;5.50;99.90;;;;;;5063691;28;20032;-53
2020/12/08 01:14:57;;;;;;;4.15;2.42;;;5.60;99.90;;;;;;5063373;28;20029;-52
2020/12/08 01:17:23;;;;;;;2.75;1.80;;;5.70;99.90;;;;;;5063232;28;20039;-53
2020/12/08 01:19:48;;;;;;;2.70;1.65;;;5.80;99.90;;;;;;5063905;28;20023;-53
2020/12/08 01:22:14;;;;;;;4.13;1.90;;;5.80;99.90;;;;;;5065824;28;20433;-53
2020/12/08 01:24:39;;;;;;;5.13;2.45;;;5.70;99.90;;;;;;5067205;28;20077;-53
2020/12/08 01:27:05;;;;;;;5.25;3.08;;;5.80;99.90;;;;;;5080835;28;20457;-52
2020/12/08 01:29:31;;;;;;;3.42;2.15;;;5.70;99.90;;;;;;5087779;28;20036;-51
2020/12/08 01:31:56;;;;;;;2.63;2.00;;;5.60;99.90;;;;;;5087430;28;20028;-51
2020/12/08 01:34:23;;;;;;;2.95;1.80;;;5.70;99.90;;;;;;5087100;28;20028;-49
2020/12/08 01:36:51;;;;;;;2.63;1.80;;;5.70;99.90;;;;;;5087242;28;20063;-52
2020/12/08 01:39:17;;;;;;;2.70;1.58;;;5.70;99.90;;;;;;5070855;28;20394;-51
2020/12/08 01:41:43;;;;;;;2.47;1.60;;;5.70;99.90;;;;;;5067881;28;20048;-52
2020/12/08 01:44:08;;;;;;;2.13;1.02;;;5.80;99.90;;;;;;5067818;28;20040;-53
2020/12/08 01:46:36;;;;;;;2.78;1.70;;;5.80;99.90;;;;;;5068464;28;20028;-53
2020/12/08 01:49:02;;;;;;;2.03;1.40;;;5.90;99.90;;;;;;5077377;28;20107;-53
2020/12/08 01:51:27;;;;;;;3.92;2.03;;;5.80;99.90;;;;;;5088704;28;20039;-54
2020/12/08 01:53:54;;;;;;;2.45;1.50;;;5.90;99.90;;;;;;5073652;28;20036;-51
2020/12/08 01:56:19;;;;;;;2.03;1.50;;;5.80;99.90;;;;;;5084067;28;20390;-50
2020/12/08 01:58:46;;;;;;;3.05;2.00;;;5.70;99.90;;;;;;5087161;28;20031;-53
2020/12/08 02:01:13;;;;;;;2.08;1.58;;;5.70;99.90;;;;;;5081835;28;20066;-50
2020/12/08 02:03:40;;;;;;;1.75;1.30;;;5.70;99.90;;;;;;5068494;28;20486;-52
2020/12/08 02:06:06;;;;;;;1.30;1.20;;;5.80;99.90;;;;;;5068498;28;20682;-52
2020/12/08 02:08:34;;;;;;;3.00;1.65;;;6.00;99.90;;;;;;5080978;28;20028;-53
2020/12/08 02:11:00;;;;;;;1.80;1.42;;;5.80;99.90;;;;;;5087429;28;20047;-53
2020/12/08 02:13:27;;;;;;;1.38;1.10;;;5.70;99.90;;;;;;5076491;28;20033;-53
2020/12/08 02:15:52;;;;;;;3.28;1.73;;;5.80;99.90;;;;;;5067461;28;20029;-53
2020/12/08 02:18:19;;;;;;;2.05;1.27;;;5.80;99.90;;;;;;5068023;28;21297;-54
2020/12/08 02:20:45;;;;;;;1.92;1.48;;;5.80;99.90;;;;;;5068052;28;20028;-53
2020/12/08 02:23:11;;;;;;;2.85;1.58;;;5.80;99.90;;;;;;5067724;28;20540;-52
2020/12/08 02:25:41;;;;;;;2.70;1.38;;;5.80;99.90;;;;;;5067671;28;20040;-52
2020/12/08 02:28:07;;;;;;;2.40;1.38;;;5.70;99.90;;;;;;5074121;28;20025;-54
2020/12/08 02:30:33;;;;;;;2.30;1.25;;;5.80;99.90;;;;;;5070313;28;20525;-53
2020/12/08 02:32:58;;;;;;;2.78;1.55;;;5.70;99.90;;;;;;5080895;28;20029;-52
2020/12/08 02:35:24;;;;;;;1.90;1.40;;;5.70;99.90;;;;;;5068261;28;20418;-52
2020/12/08 02:37:50;;;;;;;3.08;1.50;;;5.60;99.90;;;;;;5067993;28;20025;-51
2020/12/08 02:40:15;;;;;;;1.30;1.20;;;5.70;99.90;;;;;;5074537;28;20688;-50
2020/12/08 02:42:44;;;;;;;1.40;1.13;;;5.70;99.90;;;;;;5084653;28;20096;-50
2020/12/08 02:45:11;;;;;;;2.65;1.52;;;5.60;99.90;;;;;;5075798;28;20024;-50
2020/12/08 02:47:37;;;;;;;1.95;1.50;;;5.60;99.90;;;;;;5087331;28;20466;-51
2020/12/08 02:50:03;;;;;;;2.63;1.75;;;5.60;99.90;;;;;;5088019;28;20689;-52
2020/12/08 02:52:29;;;;;;;2.33;1.48;;;5.70;99.90;;;;;;5084149;28;20090;-54
2020/12/08 02:54:55;;;;;;;1.67;1.10;;;5.70;99.90;;;;;;5068930;28;20068;-54
2020/12/08 02:57:20;;;;;;;3.10;1.65;;;5.70;99.90;;;;;;5066748;28;20025;-53
2020/12/08 02:59:46;;;;;;;2.40;1.50;;;5.70;99.90;;;;;;5066983;28;20104;-54
2020/12/08 03:02:12;;;;;;;2.60;1.27;;;5.60;99.90;;;;;;5066796;28;20104;-52
2020/12/08 03:04:37;;;;;;;2.13;1.50;;;5.60;99.90;;;;;;5083800;28;20402;-51
2020/12/08 03:07:03;;;;;;;2.00;1.70;;;5.60;99.90;;;;;;5086717;28;20036;-51
2020/12/08 03:09:29;;;;;;;2.20;1.63;;;5.50;99.90;;;;;;5086523;28;20027;-53
2020/12/08 03:11:54;;;;;;;3.08;1.50;;;5.60;99.90;;;;;;5067688;28;20033;-52
2020/12/08 03:14:20;;;;;;;1.88;1.30;;;5.60;99.90;;;;;;5066580;28;20090;-53
2020/12/08 03:16:46;;;;;;;2.53;1.30;;;5.60;99.90;;;;;;5066852;28;20054;-54
2020/12/08 03:19:11;;;;;;;1.45;1.13;;;5.60;99.90;;;;;;5066744;28;20040;-53
2020/12/08 03:21:38;;;;;;;1.70;1.25;;;5.60;99.90;;;;;;5066460;28;20035;-53
2020/12/08 03:24:04;;;;;;;1.65;1.25;;;5.60;99.90;;;;;;5067637;28;20034;-53
2020/12/08 03:26:30;;;;;;;1.90;1.30;;;5.70;99.90;;;;;;5086723;28;20099;-53
2020/12/08 03:28:55;;;;;;;2.03;1.20;;;5.70;99.90;;;;;;5086879;28;20476;-54
2020/12/08 03:31:21;;;;;;;1.52;1.20;;;5.60;99.90;;;;;;5086541;28;20391;-51
2020/12/08 03:33:47;;;;;;;1.75;1.20;;;5.50;99.90;;;;;;5083333;28;20024;-53
2020/12/08 03:36:14;;;;;;;2.03;1.30;;;5.60;99.90;;;;;;5077583;28;20486;-51
2020/12/08 03:38:43;;;;;;;1.83;1.42;;;5.60;99.90;;;;;;5067263;28;20083;-51
2020/12/08 03:41:09;;;;;;;2.55;1.17;;;5.70;99.90;;;;;;5072936;28;20032;-51
2020/12/08 03:43:34;;;;;;;2.28;1.27;;;5.70;99.90;;;;;;5065661;28;20025;-50
2020/12/08 03:46:00;;;;;;;2.88;1.00;;;5.60;99.90;;;;;;5065554;28;20023;-51
2020/12/08 03:48:26;;;;;;;1.15;0.85;;;5.70;99.90;;;;;;5072448;28;20040;-50
2020/12/08 03:50:52;;;;;;;1.67;1.02;;;5.70;99.90;;;;;;5085615;28;20067;-50
2020/12/08 03:53:18;;;;;;;1.27;1.13;;;5.60;99.90;;;;;;5079060;28;20089;-51
2020/12/08 03:55:44;;;;;;;0.73;0.68;;;5.70;99.90;;;;;;5085961;28;20020;-57
2020/12/08 03:58:09;;;;;;;1.08;0.80;;;5.80;99.90;;;;;;5080416;28;20040;-51
2020/12/08 04:00:35;;;;;;;2.78;0.70;;;5.90;99.90;;;;;;5065378;28;20020;-52
2020/12/08 04:03:01;;;;;;;1.60;0.98;;;5.80;99.90;;;;;;5067346;28;20032;-51
2020/12/08 04:05:27;;;;;;;0.73;0.73;;;5.70;99.90;;;;;;5086294;28;20016;-50
2020/12/08 04:07:52;;;;;;;1.20;0.90;;;5.80;99.90;;;;;;5086500;28;20074;-50
2020/12/08 04:10:18;;;;;;;1.83;1.20;;;5.70;99.90;;;;;;5075897;28;20522;-51
2020/12/08 04:12:44;;;;;;;1.38;0.90;;;5.60;99.90;;;;;;5065247;28;20039;-52
2020/12/08 04:15:09;;;;;;;1.42;1.13;;;5.50;99.90;;;;;;5074673;28;20910;-52
2020/12/08 04:17:35;;;;;;;1.15;0.82;;;5.50;99.90;;;;;;5085854;28;20032;-51
2020/12/08 04:20:01;;;;;;;1.88;1.10;;;5.70;99.90;;;;;;5078708;28;20129;-50
2020/12/08 04:22:26;;;;;;;1.33;1.00;;;5.60;99.90;;;;;;5065514;28;20032;-50
2020/12/08 04:24:52;;;;;;;1.60;0.88;;;5.50;99.90;;;;;;5071414;28;20031;-51
2020/12/08 04:27:18;;;;;;;1.52;1.27;;;5.60;99.90;;;;;;5084490;28;20024;-51
2020/12/08 04:29:44;;;;;;;1.60;0.90;;;5.50;99.90;;;;;;5065508;28;20032;-52
2020/12/08 04:32:09;;;;;;;0.82;0.80;;;5.70;99.90;;;;;;5066148;28;20565;-51
2020/12/08 04:34:35;;;;;;;1.60;1.10;;;5.70;99.90;;;;;;5064725;28;20671;-50
2020/12/08 04:37:01;;;;;;;2.40;1.65;;;5.50;99.90;;;;;;5065793;28;20476;-50
2020/12/08 04:39:27;;;;;;;2.22;1.50;;;5.50;99.90;;;;;;5068923;28;20089;-54
2020/12/08 04:41:56;;;;;;;1.77;1.25;;;5.50;99.90;;;;;;5075942;28;20025;-55
2020/12/08 04:44:22;;;;;;;2.13;1.15;;;5.50;99.90;;;;;;5076617;28;20028;-54
2020/12/08 04:46:55;;;;;;;1.50;1.00;;;5.50;99.90;;;;;;5085889;28;20101;-53
2020/12/08 04:49:25;;;;;;;1.00;0.90;;;5.50;99.90;;;;;;5083482;28;20490;-52
2020/12/08 04:51:51;;;;;;;1.45;1.20;;;5.60;99.90;;;;;;5064670;28;20233;-54
2020/12/08 04:54:17;;;;;;;1.40;1.20;;;5.70;99.90;;;;;;5065283;28;20029;-52
2020/12/08 04:56:44;;;;;;;1.33;1.02;;;5.80;99.90;;;;;;5086938;28;20032;-53
2020/12/08 04:59:23;;;;;;;1.27;1.17;;;5.60;99.90;;;;;;5085093;28;20031;-54
2020/12/08 05:01:50;;;;;;;1.98;1.10;;;5.70;99.90;;;;;;5081357;28;20024;-54
2020/12/08 05:04:25;;;;;;;3.63;1.70;;;5.70;99.90;;;;;;5088915;28;20032;-52
2020/12/08 05:07:04;;;;;;;2.72;1.85;;;5.70;99.90;;;;;;5089509;28;20020;-52
2020/12/08 05:09:30;;;;;;;3.15;1.67;;;5.80;99.90;;;;;;5083093;28;20030;-52
2020/12/08 05:11:59;;;;;;;2.90;1.75;;;5.80;99.90;;;;;;5089963;28;20035;-53
2020/12/08 05:14:25;;;;;;;2.20;1.60;;;5.80;99.90;;;;;;5109724;28;20052;-51
2020/12/08 05:17:02;;;;;;;2.65;1.60;;;5.70;99.90;;;;;;5095619;27;20080;-53
2020/12/08 05:19:27;;;;;;;1.42;1.23;;;5.60;99.90;;;;;;5084421;28;20513;-51
2020/12/08 05:21:53;;;;;;;1.70;1.35;;;5.70;99.90;;;;;;5070159;28;20029;-54
2020/12/08 05:24:25;;;;;;;1.73;1.55;;;5.70;99.90;;;;;;5089165;28;20024;-53
2020/12/08 05:27:03;;;;;;;2.65;1.40;;;5.60;99.90;;;;;;5087728;28;20095;-54
2020/12/08 05:29:30;;;;;;;1.35;1.20;;;5.40;99.90;;;;;;5082601;28;20029;-52
2020/12/08 05:31:56;;;;;;;1.92;1.55;;;5.70;99.90;;;;;;5068927;28;20056;-53
2020/12/08 05:34:23;;;;;;;2.35;1.35;;;5.90;99.90;;;;;;5067359;28;20040;-53
2020/12/08 05:36:51;;;;;;;1.85;1.20;;;5.80;99.90;;;;;;5084507;28;20028;-53
2020/12/08 05:39:22;;;;;;;1.90;1.45;;;5.90;99.90;;;;;;5081489;28;20035;-51
2020/12/08 05:41:49;;;;;;;2.35;1.50;;;5.90;99.90;;;;;;5073604;28;20020;-50
2020/12/08 05:44:17;;;;;;;1.95;1.60;;;5.90;99.90;;;;;;5074912;28;20094;-50
2020/12/08 05:46:43;;;;;;;2.05;1.65;;;6.00;99.90;;;;;;5088943;28;20727;-50
2020/12/08 05:49:13;;;;;;;2.83;2.00;;;6.00;99.90;;;;;;5088126;28;20052;-52
2020/12/08 05:51:41;;;;;;;3.17;2.00;;;6.10;99.90;;;;;;5081755;28;20028;-51
2020/12/08 05:54:21;;;;;;;2.22;1.70;;;6.00;99.90;;;;;;5088240;28;20049;-51
2020/12/08 05:56:50;;;;;;;2.25;1.52;;;6.00;99.90;;;;;;5068425;28;20460;-51
2020/12/08 05:59:26;;;;;;;2.42;1.95;;;5.80;99.90;;;;;;5077827;28;20039;-50
2020/12/08 06:01:52;;;;;;;3.78;2.20;;;5.60;99.90;;;;;;5068094;28;20518;-51
2020/12/08 06:04:17;;;;;;;2.67;1.83;;;5.70;99.90;;;;;;5068437;28;20025;-51
2020/12/08 06:06:47;;;;;;;3.38;2.10;;;5.60;99.90;;;;;;5068421;28;20740;-50
2020/12/08 06:09:29;;;;;;;2.97;1.90;;;5.60;99.90;;;;;;5067758;28;20033;-51
2020/12/08 06:11:54;;;;;;;2.70;1.80;;;5.50;99.90;;;;;;5067504;28;20032;-49
2020/12/08 06:14:36;;;;;;;3.00;2.08;;;5.50;99.90;;;;;;5069222;28;20755;-49
2020/12/08 06:17:04;;;;;;;3.53;1.95;;;5.30;99.90;;;;;;5088548;28;20073;-51
2020/12/08 06:19:31;;;;;;;2.40;2.00;;;5.20;99.90;;;;;;5071101;28;20029;-51
2020/12/08 06:21:57;;;;;;;2.92;1.98;;;5.20;99.90;;;;;;5067711;28;20550;-52
2020/12/08 06:24:23;;;;;;;2.80;2.28;;;5.00;99.90;;;;;;5067766;28;20127;-52
2020/12/08 06:26:49;;;;;;;2.88;2.30;;;5.00;99.90;;;;;;5068157;28;20096;-50
2020/12/08 06:29:15;;;;;;;3.53;2.33;;;5.10;99.90;;;;;;5077609;28;20428;-53
2020/12/08 06:31:45;;;;;;;3.72;2.45;;;5.10;99.90;;;;;;5081365;28;20028;-51
2020/12/08 06:34:21;;;;;;;3.35;2.40;;;5.00;99.90;;;;;;5067994;28;20025;-52
2020/12/08 06:36:47;;;;;;;2.92;2.05;;;4.90;99.90;;;;;;5067713;28;20082;-52
2020/12/08 06:39:14;;;;;;;3.13;2.08;;;4.90;99.90;;;;;;5068338;28;20043;-52
2020/12/08 06:41:42;;;;;;;2.58;2.10;;;5.00;99.90;;;;;;5081638;28;20027;-53
2020/12/08 06:44:20;;;;;;;3.10;1.90;;;5.10;99.90;;;;;;5067387;28;20029;-54
2020/12/08 06:46:58;;;;;;;4.25;2.08;;;5.10;99.90;;;;;;5071924;28;20489;-51
2020/12/08 06:49:24;;;;;;;2.67;1.92;;;5.10;99.90;;;;;;5087515;28;20555;-54
2020/12/08 06:51:55;;;;;;;3.38;2.10;;;5.10;99.90;;;;;;5085681;28;20024;-58
2020/12/08 06:54:22;;;;;;;3.58;1.95;;;5.10;99.90;;;;;;5086479;28;20039;-53
2020/12/08 06:56:47;;;;;;;2.78;1.95;;;5.20;99.90;;;;;;5087634;28;20021;-52
2020/12/08 06:59:26;;;;;;;2.50;1.85;;;5.30;99.90;;;;;;5069820;28;20042;-51
2020/12/08 07:01:56;;;;;;;3.08;2.10;;;5.20;99.90;;;;;;5070665;28;20029;-51
2020/12/08 07:04:25;;;;;;;3.53;1.90;;;5.30;99.90;;;;;;5066958;28;20111;-53
2020/12/08 07:06:51;;;;;;;3.45;1.90;;;5.30;99.90;;;;;;5074056;28;20095;-51
2020/12/08 07:09:17;;;;;;;2.58;1.70;;;5.20;99.90;;;;;;5069334;28;20111;-51
2020/12/08 07:11:43;;;;;;;3.75;2.00;;;5.10;99.90;;;;;;5075954;28;20038;-54
2020/12/08 07:14:09;;;;;;;3.30;1.63;;;5.00;99.90;;;;;;5087026;28;20063;-53
2020/12/08 07:16:35;;;;;;;2.28;1.42;;;5.10;99.90;;;;;;5071679;28;20029;-53
2020/12/08 07:19:06;;;;;;;1.92;1.67;;;5.10;99.90;;;;;;5068149;28;20040;-54
2020/12/08 07:21:32;;;;;;;2.58;1.88;;;5.20;99.90;;;;;;5077051;28;20421;-51
2020/12/08 07:23:58;;;;;;;2.17;1.42;;;5.20;99.90;;;;;;5082024;28;20040;-53
2020/12/08 07:26:28;;;;;;;2.45;1.70;;;5.20;99.90;;;;;;5064962;28;20486;-53
2020/12/08 07:28:58;;;;;;;2.97;1.70;;;5.20;99.90;;;;;;5064926;28;20553;-53
2020/12/08 07:31:24;;;;;;;4.13;2.05;;;5.30;99.90;;;;;;5068861;28;20028;-54
2020/12/08 07:33:52;;;;;;;3.08;2.05;;;5.40;99.90;;;;;;5069344;28;20052;-54
2020/12/08 07:36:26;;;;;;;3.55;2.25;;;5.50;99.90;;;;;;5065182;28;20028;-53
2020/12/08 07:38:53;;;;;;;3.22;2.30;;;5.50;99.90;;;;;;5069991;28;20024;-53
2020/12/08 07:41:28;;;;;;;5.05;2.33;;;5.50;99.90;;;;;;5079234;28;20093;-54
2020/12/08 07:43:55;;;;;;;3.92;2.78;;;5.50;99.90;;;;;;5064230;28;20024;-52
2020/12/08 07:46:28;;;;;;;4.70;2.30;;;5.50;99.90;;;;;;5064991;28;20107;-51
2020/12/08 07:49:05;;;;;;;3.83;2.17;;;5.60;99.90;;;;;;5066002;28;20055;-52
2020/12/08 07:51:33;;;;;;;2.92;1.90;;;5.60;99.90;;;;;;5073298;28;20581;-48
2020/12/08 07:54:00;;;;;;;2.78;2.00;;;5.70;99.90;;;;;;5086704;28;20066;-51
2020/12/08 07:56:30;;;;;;;4.43;2.40;;;5.70;99.90;;;;;;5074167;28;20553;-50
2020/12/08 07:58:56;;;;;;;2.70;1.85;;;5.80;99.90;;;;;;5065715;28;20031;-51
2020/12/08 08:01:22;;;;;;;3.88;2.13;;;5.80;99.90;;;;;;5064938;28;20025;-48
2020/12/08 08:03:48;;;;;;;2.40;1.75;;;5.90;99.90;;;;;;5066479;28;20043;-50
2020/12/08 08:06:15;;;;;;;2.78;1.70;;;5.90;99.90;;;;;;5066737;28;20071;-51
2020/12/08 08:08:41;;;;;;;2.33;1.80;;;5.90;99.90;;;;;;5066034;28;20021;-50
2020/12/08 08:11:07;;;;;;;3.15;1.85;;;5.90;99.90;;;;;;5064147;28;20572;-48
2020/12/08 08:13:33;;;;;;;3.22;1.80;;;5.90;99.90;;;;;;5063972;28;20064;-51
2020/12/08 08:15:58;;;;;;;3.33;1.92;;;5.90;99.90;;;;;;5064633;28;20032;-51
2020/12/08 08:18:24;;;;;;;2.55;1.60;;;5.80;99.90;;;;;;5064695;28;20426;-52
2020/12/08 08:20:49;;;;;;;2.78;2.00;;;5.90;99.90;;;;;;5064393;28;20490;-51
2020/12/08 08:23:16;;;;;;;3.40;1.90;;;5.80;99.90;;;;;;5063890;28;20028;-52
2020/12/08 08:25:41;;;;;;;2.38;1.70;;;5.70;99.90;;;;;;5064832;28;20040;-51
2020/12/08 08:28:07;;;;;;;2.78;1.70;;;6.00;99.90;;;;;;5064300;28;20021;-49
2020/12/08 08:30:34;;;;;;;3.30;1.90;;;6.00;99.90;;;;;;5063991;28;20029;-52
2020/12/08 08:32:59;;;;;;;1.73;1.42;;;6.00;99.90;;;;;;5064339;28;20029;-52
2020/12/08 08:35:27;;;;;;;3.05;1.60;;;6.20;99.90;;;;;;5064127;28;20111;-50
2020/12/08 08:37:54;;;;;;;2.50;1.40;;;6.20;99.90;;;;;;5064323;28;20058;-51
2020/12/08 08:40:20;;;;;;;1.98;1.25;;;6.40;99.90;;;;;;5064445;28;20024;-51
2020/12/08 08:42:45;;;;;;;1.80;1.08;;;6.50;99.90;;;;;;5063777;28;20024;-50
2020/12/08 08:45:13;;;;;;;1.50;1.30;;;6.50;99.90;;;;;;5064760;28;20033;-50
2020/12/08 08:47:39;;;;;;;4.20;1.98;;;6.50;99.90;;;;;;5064560;28;20032;-51
2020/12/08 08:50:04;;;;;;;3.10;2.10;;;6.40;99.90;;;;;;5063458;28;20253;-51
2020/12/08 08:52:31;;;;;;;3.47;2.03;;;6.40;99.90;;;;;;5062838;28;20025;-51
2020/12/08 08:54:57;;;;;;;2.72;2.20;;;6.40;99.90;;;;;;5064307;28;20032;-50
2020/12/08 08:57:23;;;;;;;3.22;1.85;;;6.40;99.90;;;;;;5063674;28;20040;-52
2020/12/08 08:59:48;;;;;;;3.63;1.95;;;6.70;99.90;;;;;;5064035;28;20033;-51
2020/12/08 09:02:14;;;;;;;4.55;2.33;;;6.70;99.90;;;;;;5064049;28;20105;-54
2020/12/08 09:04:40;;;;;;;6.35;2.30;;;6.70;99.90;;;;;;5064399;28;20017;-54
2020/12/08 09:07:06;;;;;;;3.83;1.90;;;6.90;99.90;;;;;;5064315;28;20028;-51
2020/12/08 09:09:33;;;;;;;2.63;1.80;;;7.00;99.90;;;;;;5063683;28;20025;-50
2020/12/08 09:11:59;;;;;;;2.42;1.48;;;7.10;99.90;;;;;;5063916;28;20039;-51
2020/12/08 09:14:27;;;;;;;2.17;1.27;;;7.30;99.90;;;;;;5063371;28;20016;-50
2020/12/08 09:16:52;;;;;;;1.65;1.30;;;7.40;99.90;;;;;;5064093;28;20408;-51
2020/12/08 09:19:19;;;;;;;2.30;1.40;;;7.40;99.90;;;;;;5064010;28;20260;-50
2020/12/08 09:21:50;;;;;;;3.45;2.00;;;7.40;99.90;;;;;;5063496;28;20017;-54
2020/12/08 09:24:16;;;;;;;3.22;1.90;;;7.30;99.90;;;;;;5063967;28;20028;-50
2020/12/08 09:26:42;;;;;;;2.35;1.50;;;7.30;99.90;;;;;;5064192;28;20048;-52
2020/12/08 09:29:08;;;;;;;3.28;1.90;;;7.40;99.90;;;;;;5063913;28;20060;-52
2020/12/08 09:31:34;;;;;;;2.50;1.58;;;7.50;99.90;;;;;;5063384;28;20021;-51
2020/12/08 09:34:00;;;;;;;1.77;1.35;;;7.50;99.90;;;;;;5063811;28;20621;-50
2020/12/08 09:36:25;;;;;;;1.95;1.35;;;7.60;99.90;;;;;;5063243;28;20099;-54
2020/12/08 09:38:51;;;;;;;1.98;1.33;;;7.70;99.90;;;;;;5069654;28;20032;-50
2020/12/08 09:41:18;;;;;;;2.17;1.25;;;7.70;99.90;;;;;;5083722;28;20016;-50
2020/12/08 09:43:43;;;;;;;2.55;1.45;;;7.70;99.90;;;;;;5085719;28;20024;-51
2020/12/08 09:46:09;;;;;;;2.33;1.35;;;7.70;99.90;;;;;;5088195;28;20406;-50
2020/12/08 09:48:35;;;;;;;1.73;1.10;;;7.80;99.90;;;;;;5087517;28;20059;-52
2020/12/08 09:51:00;;;;;;;2.30;1.25;;;7.80;99.90;;;;;;5085805;28;20123;-50
2020/12/08 09:53:26;;;;;;;2.20;1.40;;;7.80;99.90;;;;;;5086918;28;20584;-50
2020/12/08 09:55:52;;;;;;;1.73;1.20;;;7.70;99.90;;;;;;5087085;28;20024;-52
2020/12/08 09:58:18;;;;;;;1.58;1.08;;;7.80;99.90;;;;;;5086916;28;20426;-50
2020/12/08 10:00:43;;;;;;;1.55;1.23;;;7.70;99.90;;;;;;5087321;28;20036;-53
2020/12/08 10:03:09;;;;;;;1.67;1.38;;;7.70;99.90;;;;;;5087609;28;20032;-51
2020/12/08 10:05:35;;;;;;;1.38;1.27;;;7.60;99.90;;;;;;5087047;28;20024;-50
2020/12/08 10:08:00;;;;;;;2.65;1.30;;;7.70;99.90;;;;;;5087139;28;20418;-50
2020/12/08 10:10:26;;;;;;;2.45;1.20;;;7.70;99.90;;;;;;5086457;28;20032;-49
2020/12/08 10:12:53;;;;;;;1.75;1.30;;;7.70;99.90;;;;;;5087069;28;20020;-50
2020/12/08 10:15:20;;;;;;;1.95;1.42;;;7.70;99.90;;;;;;5086936;28;20576;-53
2020/12/08 10:17:46;;;;;;;2.33;1.40;;;7.70;99.90;;;;;;5085023;28;20433;-50
2020/12/08 10:20:12;;;;;;;1.52;1.10;;;7.70;99.90;;;;;;5087519;28;20040;-52
2020/12/08 10:22:37;;;;;;;2.20;1.50;;;7.80;99.90;;;;;;5086477;28;20020;-51
2020/12/08 10:25:03;;;;;;;2.88;1.38;;;7.70;99.90;;;;;;5086696;28;20028;-51
2020/12/08 10:27:28;;;;;;;2.85;1.70;;;7.80;99.90;;;;;;5086387;28;20497;-51
2020/12/08 10:29:54;;;;;;;2.00;1.50;;;7.70;99.90;;;;;;5086734;28;20028;-52
2020/12/08 10:32:20;;;;;;;2.92;1.52;;;7.70;99.90;;;;;;5085875;28;20036;-50
2020/12/08 10:34:45;;;;;;;3.20;1.98;;;7.70;99.90;;;;;;5086260;28;20594;-50
2020/12/08 10:37:11;;;;;;;2.25;1.50;;;7.70;99.90;;;;;;5087029;28;20107;-50
2020/12/08 10:39:38;;;;;;;1.75;1.48;;;7.70;99.90;;;;;;5086003;28;20107;-50
2020/12/08 10:42:03;;;;;;;2.55;1.73;;;7.80;99.90;;;;;;5086215;28;20031;-51
2020/12/08 10:44:29;;;;;;;2.78;1.85;;;7.80;99.90;;;;;;5086267;28;20020;-51
2020/12/08 10:46:55;;;;;;;2.42;1.77;;;7.80;99.90;;;;;;5086752;28;20027;-53
2020/12/08 10:49:21;;;;;;;2.80;1.77;;;7.80;99.90;;;;;;5086339;28;20032;-50
2020/12/08 10:51:47;;;;;;;3.45;1.50;;;7.90;99.90;;;;;;5085573;28;20025;-50
2020/12/08 10:54:13;;;;;;;2.30;1.73;;;7.90;99.90;;;;;;5086184;28;20273;-50
2020/12/08 10:56:38;;;;;;;2.30;1.60;;;7.90;99.90;;;;;;5084760;28;20032;-48
2020/12/08 10:59:05;;;;;;;4.10;2.50;;;8.00;99.90;;;;;;5085811;28;20573;-49
2020/12/08 11:01:32;;;;;;;3.33;2.28;;;7.90;99.90;;;;;;5085506;28;20024;-48
2020/12/08 11:03:59;;;;;;;4.18;1.85;;;8.10;99.90;;;;;;5086143;28;20028;-49
2020/12/08 11:06:29;;;;;;;2.53;1.75;;;8.10;99.90;;;;;;5085779;28;20103;-49
2020/12/08 11:08:56;;;;;;;1.48;1.30;;;8.10;99.90;;;;;;5085828;28;20678;-49
2020/12/08 11:11:26;;;;;;;1.90;1.55;;;8.20;99.90;;;;;;5085299;28;20051;-51
2020/12/08 11:13:54;;;;;;;1.98;1.63;;;8.20;99.90;;;;;;5085827;28;20024;-49
2020/12/08 11:16:20;;;;;;;2.50;1.50;;;8.30;99.90;;;;;;5085894;28;20081;-48
2020/12/08 11:18:46;;;;;;;1.60;1.20;;;8.40;99.90;;;;;;5085616;28;20031;-48
2020/12/08 11:21:12;;;;;;;1.73;1.00;;;8.50;99.90;;;;;;5086127;28;20040;-48
2020/12/08 11:23:40;;;;;;;2.15;1.40;;;8.50;99.90;;;;;;5085165;28;20020;-47
2020/12/08 11:26:12;;;;;;;1.98;1.30;;;8.50;99.90;;;;;;5085145;28;20024;-48
2020/12/08 11:28:38;;;;;;;2.33;1.30;;;8.50;99.90;;;;;;5085279;28;20416;-51
2020/12/08 11:31:05;;;;;;;4.53;2.13;;;8.40;99.90;;;;;;5085854;28;20406;-48
2020/12/08 11:33:31;;;;;;;4.20;2.42;;;8.40;99.90;;;;;;5085108;28;20458;-47
2020/12/08 11:35:56;;;;;;;2.60;1.90;;;8.50;99.90;;;;;;5084352;28;20058;-47
2020/12/08 11:38:23;;;;;;;2.53;1.80;;;8.50;99.90;;;;;;5084877;28;20393;-51
2020/12/08 11:40:49;;;;;;;3.08;1.65;;;8.50;99.90;;;;;;5085945;28;20052;-48
2020/12/08 11:43:15;;;;;;;2.58;1.40;;;8.60;99.90;;;;;;5085085;28;20514;-47
2020/12/08 11:45:40;;;;;;;1.83;1.10;;;8.60;99.90;;;;;;5085816;28;20051;-47
2020/12/08 11:48:06;;;;;;;2.80;1.67;;;8.60;99.90;;;;;;5085072;28;20024;-48
2020/12/08 11:50:32;;;;;;;2.88;1.55;;;8.40;99.90;;;;;;5084899;28;20039;-48
2020/12/08 11:52:57;;;;;;;2.75;1.50;;;8.50;99.90;;;;;;5084399;28;20031;-51
2020/12/08 11:55:23;;;;;;;3.05;1.63;;;8.50;99.90;;;;;;5084526;28;20035;-50
2020/12/08 11:57:49;;;;;;;2.28;1.42;;;8.60;99.90;;;;;;5084815;28;20032;-51
2020/12/08 12:00:15;;;;;;;2.00;1.30;;;8.50;99.90;;;;;;5084973;28;20089;-51
2020/12/08 12:02:40;;;;;;;7.55;3.05;;;8.50;99.90;;;;;;5085192;28;20478;-52
2020/12/08 12:05:06;;;;;;;5.05;2.53;;;8.40;99.90;;;;;;5084634;28;20031;-50
2020/12/08 12:07:33;;;;;;;5.40;2.65;;;8.40;99.90;;;;;;5083882;28;20498;-52
2020/12/08 12:09:59;;;;;;;2.90;1.95;;;8.50;99.90;;;;;;5084715;28;20031;-50
2020/12/08 12:12:25;;;;;;;4.63;2.03;;;8.60;99.90;;;;;;5084433;28;20047;-51
2020/12/08 12:14:50;;;;;;;2.90;1.98;;;8.50;99.90;;;;;;5081320;28;20024;-51
2020/12/08 12:17:16;;;;;;;2.17;1.65;;;8.70;99.90;;;;;;5079141;28;20039;-51
2020/12/08 12:19:42;;;;;;;2.72;1.70;;;8.60;99.90;;;;;;5083191;28;20028;-52
2020/12/08 12:22:07;;;;;;;3.03;1.80;;;8.60;99.90;;;;;;5073540;28;20028;-50
2020/12/08 12:24:34;;;;;;;2.10;1.13;;;8.60;99.90;;;;;;5082132;28;20035;-51
2020/12/08 12:26:59;;;;;;;1.85;1.45;;;8.60;99.90;;;;;;5067514;28;20028;-50
2020/12/08 12:29:25;;;;;;;2.92;1.65;;;8.60;99.90;;;;;;5065765;28;20391;-50
2020/12/08 12:31:51;;;;;;;3.17;1.70;;;8.50;99.90;;;;;;5069849;28;20421;-52
2020/12/08 12:34:18;;;;;;;2.67;1.40;;;8.50;99.90;;;;;;5086124;28;20036;-52
2020/12/08 12:36:46;;;;;;;2.20;1.40;;;8.30;99.90;;;;;;5078947;28;20020;-51
2020/12/08 12:39:12;;;;;;;3.13;1.95;;;8.30;99.90;;;;;;5066421;28;20031;-50
2020/12/08 12:41:38;;;;;;;2.47;1.63;;;8.50;99.90;;;;;;5065421;28;20382;-50
2020/12/08 12:44:03;;;;;;;2.58;1.50;;;8.50;99.90;;;;;;5064446;28;20036;-49
2020/12/08 12:46:29;;;;;;;2.53;1.55;;;8.60;99.90;;;;;;5069596;28;20027;-49
2020/12/08 12:48:56;;;;;;;2.25;1.58;;;8.60;99.90;;;;;;5079979;28;20403;-49
2020/12/08 12:51:23;;;;;;;1.30;1.10;;;8.50;99.90;;;;;;5078133;28;20521;-52
2020/12/08 12:53:48;;;;;;;2.78;1.60;;;8.60;99.90;;;;;;5085969;28;20024;-50
2020/12/08 12:56:21;;;;;;;1.80;1.38;;;8.70;99.90;;;;;;5084724;28;20452;-48